Time;durP1;ratioP1;P1;durP2;ratioP2;P2;SDS_P1;SDS_P2;PMS_P1;PMS_P2;Temp;Humidity;BMP_temperature;BMP_pressure;BME280_temperature;BME280_humidity;BME280_pressure;Samples;Min_cycle;Max_cycle;Signal;HPM_P1;HPM_P2
2021/01/13 00:24:57;;;;;;;45.73;16.17;;;;;;;0.69;90.84;98354.55;1792068;75;21136;31
2021/01/13 00:34:16;;;;;;;50.88;15.30;;;;;;;0.68;91.11;98351.58;1819294;78;21113;-82
2021/01/13 00:39:49;;;;;;;41.02;16.17;;;;;;;0.70;90.86;98359.27;1811910;78;21011;-82
2021/01/13 01:01:04;;;;;;;42.53;15.15;;;;;;;0.85;90.14;98366.11;1787327;79;21024;-82
2021/01/13 01:03:35;;;;;;;38.83;15.13;;;;;;;0.86;89.70;98362.28;1783879;79;21563;-83
2021/01/13 01:32:38;;;;;;;37.28;14.50;;;;;;;0.73;91.66;98360.53;1780485;77;21160;-80
2021/01/13 02:56:18;;;;;;;19.90;7.50;;;;;;;0.79;90.73;98357.55;1741049;80;21061;-82
2021/01/13 02:58:54;;;;;;;15.35;6.47;;;;;;;0.83;90.56;98350.75;1784756;80;21260;-82
2021/01/13 03:01:26;;;;;;;19.60;7.97;;;;;;;0.55;90.27;98300.80;1764739;80;21085;-82
2021/01/13 03:03:55;;;;;;;18.17;8.08;;;;;;;0.82;90.31;98343.94;1760277;79;21311;-81
2021/01/13 03:06:29;;;;;;;18.77;7.70;;;;;;;0.82;90.29;98334.98;1741046;81;21259;-83
2021/01/13 03:09:08;;;;;;;19.07;7.95;;;;;;;0.85;89.94;98345.20;1746884;80;21135;-82
2021/01/13 03:11:40;;;;;;;22.10;8.15;;;;;;;0.82;89.78;98346.49;1746393;81;21264;-82
2021/01/13 03:14:18;;;;;;;18.55;7.53;;;;;;;0.37;89.92;98287.97;1772857;79;21128;-82
2021/01/13 03:20:37;;;;;;;16.42;6.37;;;;;;;0.71;90.18;98341.34;1795933;79;21041;-82
2021/01/13 03:32:34;;;;;;;27.62;12.03;;;;;;;0.72;90.06;98345.62;1781722;80;21173;-80
2021/01/13 03:44:03;;;;;;;34.18;11.63;;;;;;;0.58;89.47;98339.19;1764939;77;21105;-81
2021/01/13 03:46:32;;;;;;;27.65;10.53;;;;;;;0.51;90.19;98345.55;1739732;81;21156;-81
2021/01/13 03:52:29;;;;;;;25.37;10.75;;;;;;;0.47;90.48;98340.00;1785280;78;21054;-80
2021/01/13 03:58:50;;;;;;;28.47;9.90;;;;;;;0.47;90.72;98334.89;1793268;78;21050;-81
2021/01/13 04:14:56;;;;;;;26.15;9.75;;;;;;;0.44;90.63;98331.03;1795111;78;21180;-82
2021/01/13 04:17:27;;;;;;;25.45;9.93;;;;;;;0.37;91.06;98334.84;1791118;78;21437;-81
2021/01/13 04:23:22;;;;;;;24.57;10.03;;;;;;;0.33;91.18;98343.36;1793844;79;21053;-81
2021/01/13 04:56:22;;;;;;;22.55;8.58;;;;;;;0.37;90.15;98321.22;1754275;77;21141;31
2021/01/13 05:05:47;;;;;;;27.02;11.18;;;;;;;0.37;89.99;98313.54;1814289;77;21069;-81
2021/01/13 05:08:28;;;;;;;25.57;10.93;;;;;;;0.37;89.85;98313.11;1811418;77;21235;-81
2021/01/13 05:11:05;;;;;;;30.02;11.10;;;;;;;0.35;89.91;98320.36;1818325;77;21137;-81
2021/01/13 06:19:28;;;;;;;16.02;7.10;;;;;;;0.24;87.97;98320.33;1814618;75;21098;-81
2021/01/13 06:22:09;;;;;;;22.55;8.65;;;;;;;0.16;88.09;98326.69;1772687;81;21251;-81
2021/01/13 06:24:38;;;;;;;17.27;7.47;;;;;;;0.14;87.90;98315.60;1771342;81;21253;-81
2021/01/13 06:27:20;;;;;;;14.13;6.35;;;;;;;0.21;87.77;98329.69;1775871;81;21240;-82
2021/01/13 06:50:13;;;;;;;17.57;7.35;;;;;;;0.15;87.91;98339.02;1721735;80;21163;31
2021/01/13 07:15:18;;;;;;;18.70;7.30;;;;;;;0.30;87.01;98317.80;1671195;80;21503;31
2021/01/13 07:41:30;;;;;;;15.30;6.95;;;;;;;0.30;87.22;98330.98;1754078;78;21182;-78
2021/01/13 09:11:16;;;;;;;17.52;7.83;;;;;;;1.30;80.71;98322.21;1693304;80;21144;-86
2021/01/13 09:14:47;;;;;;;16.15;7.60;;;;;;;1.41;81.73;98326.03;1684828;79;21149;-90
2021/01/13 09:18:07;;;;;;;15.03;7.00;;;;;;;1.32;80.36;98335.87;1612500;81;21127;31
2021/01/13 10:38:00;;;;;;;10.88;4.87;;;;;;;1.35;77.63;98308.95;1718777;77;21445;-84
2021/01/13 10:53:08;;;;;;;11.33;5.35;;;;;;;1.37;75.79;98327.73;1701395;82;21264;-81
2021/01/13 10:56:03;;;;;;;10.05;5.28;;;;;;;1.43;74.54;98325.60;1725232;82;21531;-85
2021/01/13 11:01:39;;;;;;;14.90;6.03;;;;;;;1.38;74.49;98329.03;1756323;81;20176;-83
2021/01/13 11:05:00;;;;;;;13.20;6.00;;;;;;;1.28;73.80;98331.17;1788236;78;21288;-88
2021/01/13 11:10:51;;;;;;;20.10;7.90;;;;;;;1.25;73.74;98332.44;1655055;84;21820;-82
2021/01/13 11:13:20;;;;;;;16.07;7.72;;;;;;;1.30;74.35;98332.02;1687285;83;21316;-87
2021/01/13 11:19:25;;;;;;;19.77;7.72;;;;;;;1.27;75.63;98332.00;1693716;81;21150;-91
2021/01/13 11:22:05;;;;;;;17.85;7.05;;;;;;;1.29;75.96;98326.45;1718611;82;21255;-90
2021/01/13 11:32:12;;;;;;;13.72;6.72;;;;;;;1.15;75.81;98342.25;1673045;82;21327;-89
2021/01/13 11:39:02;;;;;;;19.90;8.00;;;;;;;1.23;76.92;98346.95;1694533;83;21259;-87
2021/01/13 11:42:36;;;;;;;16.85;7.05;;;;;;;1.29;75.97;98346.94;1631562;84;21850;-88
2021/01/13 11:45:53;;;;;;;15.63;6.17;;;;;;;1.28;76.36;98340.13;1660765;84;21347;-88
2021/01/13 11:56:28;;;;;;;15.32;6.72;;;;;;;1.48;76.62;98338.84;1683338;83;21329;-91
2021/01/13 11:59:38;;;;;;;14.07;5.60;;;;;;;1.26;75.17;98334.16;1680725;83;21200;-88
2021/01/13 12:02:53;;;;;;;15.05;6.87;;;;;;;1.49;75.82;98352.09;1714987;82;21507;-87
2021/01/13 12:05:40;;;;;;;24.65;5.22;;;;;;;1.51;75.43;98358.06;1646040;83;21207;-89
2021/01/13 12:11:49;;;;;;;11.55;4.62;;;;;;;1.39;73.29;98355.48;1718657;82;21232;-88
2021/01/13 12:14:18;;;;;;;13.68;6.30;;;;;;;1.34;74.34;98360.61;1742340;81;22703;-84
2021/01/13 12:16:47;;;;;;;15.53;6.75;;;;;;;1.34;74.45;98355.49;1715494;82;21198;-86
2021/01/13 12:19:15;;;;;;;16.85;6.35;;;;;;;1.32;75.33;98362.76;1730195;82;21338;-88
2021/01/13 12:21:55;;;;;;;15.38;7.00;;;;;;;1.36;75.92;98352.94;1738052;81;21843;-87
2021/01/13 12:24:49;;;;;;;15.53;5.97;;;;;;;1.26;76.21;98358.48;1704519;80;21396;-89
2021/01/13 12:27:48;;;;;;;16.82;6.72;;;;;;;1.15;75.10;98343.12;1703813;82;21321;-81
2021/01/13 12:35:38;;;;;;;20.43;10.00;;;;;;;1.30;76.17;98337.14;1711483;81;21137;-84
2021/01/13 12:42:10;;;;;;;28.25;10.53;;;;;;;1.93;75.78;98338.75;1698689;79;21312;-88
2021/01/13 12:45:02;;;;;;;25.52;10.10;;;;;;;2.43;74.72;98330.05;1640918;85;21194;-89
2021/01/13 12:47:29;;;;;;;30.05;10.50;;;;;;;2.84;71.67;98334.08;1610505;87;21666;-93
2021/01/13 12:49:57;;;;;;;23.42;9.88;;;;;;;2.94;71.50;98325.89;1615675;87;21597;-94
2021/01/13 12:52:25;;;;;;;30.75;11.63;;;;;;;2.92;71.81;98324.61;1630472;86;21205;-94
2021/01/13 12:54:53;;;;;;;29.07;8.95;;;;;;;2.62;71.34;98333.35;1632908;86;21209;-93
2021/01/13 12:57:21;;;;;;;28.20;10.93;;;;;;;2.24;72.39;98338.67;1632860;87;21776;-90
2021/01/13 12:59:49;;;;;;;26.25;10.80;;;;;;;2.01;72.67;98331.05;1629476;86;21361;-90
2021/01/13 13:02:17;;;;;;;28.10;10.85;;;;;;;1.96;73.81;98334.47;1631999;86;21637;-91
2021/01/13 13:04:45;;;;;;;24.35;10.30;;;;;;;2.15;73.43;98337.00;1626781;87;21625;-89
2021/01/13 13:07:13;;;;;;;28.87;11.50;;;;;;;2.51;73.25;98335.98;1632953;86;21217;-90
2021/01/13 13:09:41;;;;;;;32.28;10.80;;;;;;;2.38;72.28;98349.72;1627890;87;21193;-91
2021/01/13 13:12:09;;;;;;;30.95;10.70;;;;;;;2.37;72.59;98354.45;1630941;87;21615;-90
2021/01/13 13:14:37;;;;;;;28.17;11.50;;;;;;;2.29;73.10;98366.02;1632678;86;21201;-90
2021/01/13 13:17:17;;;;;;;29.02;10.48;;;;;;;2.03;72.78;98372.91;1679563;80;21186;-90
2021/01/13 13:19:45;;;;;;;30.65;10.23;;;;;;;1.98;73.83;98374.22;1745290;81;21138;-87
2021/01/13 13:22:14;;;;;;;25.57;9.98;;;;;;;1.70;74.95;98372.98;1753468;81;21848;-84
2021/01/13 13:24:43;;;;;;;24.80;9.60;;;;;;;1.58;75.24;98370.43;1734818;81;21734;-83
2021/01/13 13:27:11;;;;;;;29.42;9.70;;;;;;;1.41;75.77;98358.89;1702061;81;21700;-83
2021/01/13 13:29:49;;;;;;;29.07;11.73;;;;;;;1.31;75.36;98358.07;1682099;83;21196;-84
2021/01/13 13:32:18;;;;;;;36.33;12.10;;;;;;;1.19;76.56;98360.60;1729654;81;21350;-87
2021/01/13 13:35:19;;;;;;;33.13;11.88;;;;;;;1.03;76.69;98364.85;1687769;83;21107;-90
2021/01/13 13:44:38;;;;;;;28.35;10.40;;;;;;;0.74;77.60;98377.61;1738422;80;21241;-84
2021/01/13 13:51:36;;;;;;;39.63;13.13;;;;;;;0.58;78.63;98389.06;1727535;76;21174;-83
2021/01/13 14:01:39;;;;;;;25.35;9.63;;;;;;;0.63;79.24;98403.58;1633897;80;21276;31
2021/01/13 14:08:35;;;;;;;28.85;10.40;;;;;;;0.65;79.19;98401.88;1694331;80;21193;-83
2021/01/13 14:14:52;;;;;;;25.82;9.55;;;;;;;0.57;78.99;98408.23;1658729;80;21187;-84
2021/01/13 15:29:44;;;;;;;40.63;13.48;;;;;;;-0.15;83.73;98474.30;1695450;82;21094;-82
2021/01/13 15:35:16;;;;;;;43.68;14.63;;;;;;;-0.17;84.22;98487.48;1716938;80;21276;31
2021/01/13 15:38:00;;;;;;;42.67;13.72;;;;;;;-0.19;84.26;98482.35;1728308;79;21173;31
2021/01/13 15:44:15;;;;;;;42.73;14.07;;;;;;;-0.14;83.71;98487.09;1737919;77;21189;-78
2021/01/13 15:46:43;;;;;;;46.45;14.83;;;;;;;-0.19;84.23;98485.34;1720265;81;21230;-79
2021/01/13 15:49:11;;;;;;;47.40;15.38;;;;;;;-0.19;84.21;98494.28;1720254;81;21209;-77
2021/01/13 15:51:45;;;;;;;47.03;15.60;;;;;;;-0.21;83.83;98490.00;1699027;83;21469;-74
2021/01/13 15:54:14;;;;;;;47.58;16.57;;;;;;;-0.17;83.47;98495.14;1721043;80;21177;-74
2021/01/13 15:56:43;;;;;;;48.10;13.45;;;;;;;-0.23;84.10;98502.33;1699888;82;21157;-74
2021/01/13 15:59:12;;;;;;;49.65;15.75;;;;;;;-0.27;84.02;98495.05;1703581;82;21146;-74
2021/01/13 16:01:41;;;;;;;39.63;13.88;;;;;;;-0.31;84.08;98497.16;1667518;83;22144;-72
2021/01/13 16:04:09;;;;;;;44.75;14.40;;;;;;;-0.26;83.59;98499.34;1728053;80;21145;-72
2021/01/13 16:06:38;;;;;;;57.38;18.00;;;;;;;-0.35;84.26;98503.51;1730409;80;21162;-74
2021/01/13 16:09:07;;;;;;;48.85;16.42;;;;;;;-0.42;84.76;98518.78;1723888;80;21166;-72
2021/01/13 16:11:43;;;;;;;46.28;16.20;;;;;;;-0.44;84.94;98508.09;1704970;81;21157;-73
2021/01/13 16:14:15;;;;;;;52.25;16.10;;;;;;;-0.46;85.10;98517.44;1730756;81;21186;-73
2021/01/13 16:16:44;;;;;;;47.03;15.53;;;;;;;-0.46;84.28;98514.87;1707330;81;21154;-72
2021/01/13 16:19:13;;;;;;;44.00;15.68;;;;;;;-0.53;85.20;98521.64;1727066;80;21156;-73
2021/01/13 16:21:44;;;;;;;45.52;15.80;;;;;;;-0.56;85.42;98522.02;1717040;81;21171;-73
2021/01/13 16:24:14;;;;;;;44.77;15.80;;;;;;;-0.58;85.55;98522.00;1710933;81;21185;-75
2021/01/13 16:26:42;;;;;;;48.48;15.98;;;;;;;-0.55;85.07;98525.88;1713008;81;21176;-75
2021/01/13 16:29:11;;;;;;;54.83;17.50;;;;;;;-0.56;85.51;98530.95;1687659;83;21155;-74
2021/01/13 16:31:42;;;;;;;42.50;15.95;;;;;;;-0.54;85.04;98523.73;1696505;83;21198;-75
2021/01/13 16:34:13;;;;;;;45.88;15.53;;;;;;;-0.57;84.96;98527.55;1696525;83;21172;-76
2021/01/13 16:36:47;;;;;;;49.25;16.93;;;;;;;-0.61;85.43;98529.21;1717429;82;21148;-73
2021/01/13 16:39:19;;;;;;;39.45;13.28;;;;;;;-0.62;84.98;98533.02;1711738;82;21132;-74
2021/01/13 16:41:48;;;;;;;42.20;14.43;;;;;;;-0.61;84.97;98538.58;1709247;81;21180;-75
2021/01/13 16:44:23;;;;;;;41.15;13.78;;;;;;;-0.62;84.66;98539.00;1703532;81;21236;-73
2021/01/13 16:46:51;;;;;;;41.23;16.07;;;;;;;-0.59;84.46;98546.27;1734209;82;21139;-73
2021/01/13 16:49:19;;;;;;;41.42;14.10;;;;;;;-0.61;84.47;98547.08;1704672;82;21641;-74
2021/01/13 16:51:52;;;;;;;35.73;12.35;;;;;;;-0.56;84.13;98548.83;1710028;82;21212;-73
2021/01/13 16:54:22;;;;;;;32.93;13.47;;;;;;;-0.57;84.14;98547.13;1715636;81;21164;-73
2021/01/13 16:56:50;;;;;;;38.13;15.18;;;;;;;-0.54;84.12;98545.87;1695780;83;21185;-74
2021/01/13 16:59:20;;;;;;;35.80;13.35;;;;;;;-0.53;84.05;98548.45;1715479;81;21163;-75
2021/01/13 17:01:48;;;;;;;42.38;14.43;;;;;;;-0.51;84.04;98551.02;1700995;82;21635;-74
2021/01/13 17:04:17;;;;;;;43.10;16.15;;;;;;;-0.46;84.05;98554.46;1714663;82;21159;-74
2021/01/13 17:06:45;;;;;;;34.55;14.58;;;;;;;-0.49;83.98;98555.30;1709562;82;21902;-74
2021/01/13 17:09:13;;;;;;;31.82;12.58;;;;;;;-0.43;83.80;98560.89;1680216;82;21132;-74
2021/01/13 17:11:41;;;;;;;38.23;11.83;;;;;;;-0.42;83.72;98558.76;1703926;82;21164;-73
2021/01/13 17:14:10;;;;;;;37.95;12.53;;;;;;;-0.43;83.58;98568.55;1700708;82;21578;-74
2021/01/13 17:16:40;;;;;;;38.55;12.93;;;;;;;-0.34;83.50;98560.97;1717232;82;21183;-74
2021/01/13 17:19:11;;;;;;;35.90;14.83;;;;;;;-0.31;83.51;98566.13;1696410;83;21177;-72
2021/01/13 17:21:39;;;;;;;43.52;17.42;;;;;;;-0.38;82.98;98573.27;1707951;81;21163;-72
2021/01/13 17:24:08;;;;;;;56.83;20.30;;;;;;;-0.35;82.82;98568.21;1693254;83;21175;-72
2021/01/13 17:26:38;;;;;;;52.27;19.37;;;;;;;-0.33;82.88;98570.36;1698714;83;21620;-72
2021/01/13 17:29:06;;;;;;;36.55;13.15;;;;;;;-0.31;82.69;98561.44;1715157;81;21159;-73
2021/01/13 17:31:35;;;;;;;30.10;11.33;;;;;;;-0.28;82.47;98558.89;1691497;83;21144;-73
2021/01/13 17:34:04;;;;;;;37.85;12.05;;;;;;;-0.32;82.33;98561.87;1716915;82;21165;-73
2021/01/13 17:36:32;;;;;;;32.80;12.45;;;;;;;-0.32;82.38;98568.25;1695536;83;21174;-72
2021/01/13 17:39:00;;;;;;;32.73;12.30;;;;;;;-0.27;82.41;98565.73;1713526;82;21191;-73
2021/01/13 17:41:28;;;;;;;35.35;14.15;;;;;;;-0.28;82.40;98566.16;1715226;82;21659;-72
2021/01/13 17:43:56;;;;;;;31.55;12.50;;;;;;;-0.29;81.58;98577.64;1717723;82;21172;-72
2021/01/13 17:46:26;;;;;;;31.33;10.40;;;;;;;-0.27;80.64;98577.23;1711529;81;21179;-81
2021/01/13 17:48:54;;;;;;;33.78;11.80;;;;;;;-0.25;80.56;98570.01;1705645;81;21169;-83
2021/01/13 18:00:27;;;;;;;29.27;10.35;;;;;;;-0.23;80.10;98576.42;1732983;79;21303;-82
2021/01/13 18:02:58;;;;;;;36.83;12.10;;;;;;;-0.24;80.16;98567.02;1734843;80;21282;-83
2021/01/13 18:05:30;;;;;;;34.63;13.05;;;;;;;-0.24;79.85;98565.35;1772016;78;21252;-83
2021/01/13 18:08:02;;;;;;;36.17;13.10;;;;;;;-0.26;80.03;98558.48;1752941;80;21233;-81
2021/01/13 18:10:30;;;;;;;30.92;12.45;;;;;;;-0.21;80.42;98569.19;1779055;80;21276;-82
2021/01/13 18:12:58;;;;;;;36.10;13.62;;;;;;;-0.22;80.25;98559.83;1754838;80;21366;-80
2021/01/13 18:15:30;;;;;;;33.73;14.40;;;;;;;-0.29;79.47;98568.27;1758580;80;21257;-83
2021/01/13 18:18:03;;;;;;;40.70;15.13;;;;;;;-0.24;79.72;98574.30;1717032;81;21312;-78
2021/01/13 18:20:34;;;;;;;33.65;13.65;;;;;;;-0.28;79.70;98559.78;1683395;83;21257;-80
2021/01/13 18:23:11;;;;;;;36.35;14.28;;;;;;;-0.31;79.64;98575.06;1678269;83;21883;-80
2021/01/13 18:25:50;;;;;;;38.08;14.43;;;;;;;-0.24;79.88;98575.97;1855200;75;23106;-80
2021/01/13 18:28:18;;;;;;;41.92;13.98;;;;;;;-0.28;80.15;98585.33;1829436;78;21639;-79
2021/01/13 18:33:49;;;;;;;37.67;14.33;;;;;;;-0.32;80.64;98588.69;1722178;82;21302;-80
2021/01/13 18:36:17;;;;;;;50.35;18.35;;;;;;;-0.32;81.05;98586.53;1724734;82;21244;-80
2021/01/13 18:38:45;;;;;;;50.58;19.37;;;;;;;-0.38;81.89;98602.64;1716899;82;21322;-81
2021/01/13 18:41:13;;;;;;;44.13;15.25;;;;;;;-0.42;82.69;98594.12;1718935;82;21374;-80
2021/01/13 18:43:41;;;;;;;51.80;19.67;;;;;;;-0.45;82.90;98600.88;1719392;82;21279;-80
2021/01/13 18:46:09;;;;;;;39.83;15.50;;;;;;;-0.50;83.00;98619.11;1718464;82;22121;-81
2021/01/13 18:48:37;;;;;;;42.33;15.83;;;;;;;-0.49;82.63;98607.64;1726202;82;21288;-82
2021/01/13 18:51:06;;;;;;;47.05;17.40;;;;;;;-0.51;82.80;98604.65;1723223;81;21315;-80
2021/01/13 18:53:33;;;;;;;48.70;17.62;;;;;;;-0.56;82.97;98604.58;1723754;81;21291;-81
2021/01/13 18:56:01;;;;;;;39.73;17.30;;;;;;;-0.56;83.23;98602.02;1704405;81;21281;-82
2021/01/13 18:58:32;;;;;;;41.42;15.43;;;;;;;-0.55;82.70;98605.03;1755409;77;21298;-80
2021/01/13 19:01:00;;;;;;;38.95;13.88;;;;;;;-0.58;83.13;98604.98;1811825;77;21223;-81
2021/01/13 19:03:27;;;;;;;43.78;15.20;;;;;;;-0.54;82.67;98617.37;1781077;80;21684;-81
2021/01/13 19:05:55;;;;;;;45.48;15.58;;;;;;;-0.57;83.15;98619.91;1751846;79;21323;-82
2021/01/13 19:08:23;;;;;;;45.63;16.40;;;;;;;-0.60;83.30;98618.14;1763631;78;21221;-80
2021/01/13 19:10:51;;;;;;;46.23;18.55;;;;;;;-0.66;83.75;98629.17;1732943;82;21280;-81
2021/01/13 19:13:18;;;;;;;44.27;15.93;;;;;;;-0.62;83.55;98624.93;1731151;81;21271;-81
2021/01/13 19:15:46;;;;;;;43.25;16.75;;;;;;;-0.61;83.22;98622.83;1727770;81;21295;-83
2021/01/13 19:18:14;;;;;;;46.02;17.00;;;;;;;-0.61;83.54;98632.62;1754984;80;21286;-83
2021/01/13 19:20:42;;;;;;;42.88;15.20;;;;;;;-0.56;83.18;98620.32;1805433;80;21554;-85
2021/01/13 19:23:09;;;;;;;43.38;15.32;;;;;;;-0.57;83.26;98615.64;1805475;79;21243;-83
2021/01/13 19:25:37;;;;;;;40.78;17.07;;;;;;;-0.59;83.53;98619.88;1773354;81;21263;-85
2021/01/13 19:28:07;;;;;;;50.67;17.42;;;;;;;-0.52;83.46;98623.34;1803866;78;21235;-73
2021/01/13 19:30:35;;;;;;;44.65;18.90;;;;;;;-0.53;83.42;98619.95;1769157;78;21296;-80
2021/01/13 19:33:04;;;;;;;46.77;18.60;;;;;;;-0.53;83.94;98617.81;1768968;79;21261;-82
2021/01/13 19:35:31;;;;;;;51.85;18.65;;;;;;;-0.50;83.56;98616.56;1768684;80;21529;-81
2021/01/13 19:37:59;;;;;;;44.27;16.35;;;;;;;-0.49;83.65;98614.46;1768124;79;21383;-81
2021/01/13 19:40:28;;;;;;;43.87;15.60;;;;;;;-0.47;83.87;98616.61;1756284;78;21269;-81
2021/01/13 19:42:59;;;;;;;42.05;15.75;;;;;;;-0.49;83.91;98609.35;1757341;78;21272;-82
2021/01/13 19:45:29;;;;;;;43.95;18.32;;;;;;;-0.50;84.10;98602.09;1751036;79;21283;-81
2021/01/13 19:48:00;;;;;;;46.37;18.48;;;;;;;-0.51;84.16;98607.20;1751832;81;21270;-81
2021/01/13 19:50:30;;;;;;;42.27;15.95;;;;;;;-0.53;84.21;98607.61;1769952;79;21101;-82
2021/01/13 19:53:01;;;;;;;44.25;16.82;;;;;;;-0.54;84.24;98604.17;1771602;80;21284;-80
2021/01/13 19:55:29;;;;;;;44.67;15.98;;;;;;;-0.56;84.40;98603.30;1768348;81;21062;-83
2021/01/13 19:57:57;;;;;;;48.87;18.30;;;;;;;-0.57;84.38;98604.58;1768804;81;21295;-81
2021/01/13 20:00:25;;;;;;;52.58;19.45;;;;;;;-0.57;84.18;98596.92;1771481;81;21267;-82
2021/01/13 20:02:53;;;;;;;59.60;20.10;;;;;;;-0.60;84.51;98605.38;1772213;80;21229;-83
2021/01/13 20:05:22;;;;;;;51.05;19.75;;;;;;;-0.62;84.38;98593.90;1767127;80;21252;-84
2021/01/13 20:07:51;;;;;;;48.75;18.27;;;;;;;-0.59;84.11;98597.33;1772380;80;21149;-83
2021/01/13 20:10:23;;;;;;;50.92;19.02;;;;;;;-0.59;83.99;98604.98;1773186;79;21343;-82
2021/01/13 20:12:54;;;;;;;50.03;17.70;;;;;;;-0.62;84.03;98606.66;1721236;78;21329;-81
2021/01/13 20:15:42;;;;;;;50.73;16.97;;;;;;;-0.63;84.17;98598.55;1675269;81;21268;31
2021/01/13 20:18:11;;;;;;;43.63;18.25;;;;;;;-0.62;84.17;98595.57;1774447;80;21276;-83
2021/01/13 20:20:38;;;;;;;41.42;14.38;;;;;;;-0.63;84.18;98591.31;1757600;78;22545;-79
2021/01/13 20:23:06;;;;;;;45.98;16.82;;;;;;;-0.61;83.79;98591.77;1718659;78;21268;-80
2021/01/13 20:25:35;;;;;;;43.13;16.15;;;;;;;-0.69;84.68;98590.83;1688205;82;21159;-81
2021/01/13 20:28:04;;;;;;;44.18;15.45;;;;;;;-0.67;84.65;98585.31;1688253;82;21335;-81
2021/01/13 20:30:33;;;;;;;41.73;14.50;;;;;;;-0.64;84.39;98603.23;1648358;86;21191;-82
2021/01/13 20:33:02;;;;;;;46.73;15.20;;;;;;;-0.65;84.84;98601.51;1686132;81;21279;-81
2021/01/13 20:35:31;;;;;;;32.73;13.55;;;;;;;-0.64;84.59;98597.25;1647096;83;21301;-81
2021/01/13 20:37:59;;;;;;;38.33;13.60;;;;;;;-0.66;84.92;98598.93;1675779;80;21162;-82
2021/01/13 20:40:42;;;;;;;41.23;15.03;;;;;;;-0.69;85.16;98598.48;1690579;78;21286;-81
2021/01/13 20:43:10;;;;;;;44.90;17.47;;;;;;;-0.70;84.74;98594.62;1694174;78;23195;-77
2021/01/13 20:48:33;;;;;;;35.80;14.25;;;;;;;-0.82;85.45;98608.09;1719332;78;21141;-80
2021/01/13 20:51:08;;;;;;;41.28;16.12;;;;;;;-0.88;85.66;98610.58;1729752;77;21300;31
2021/01/13 20:53:36;;;;;;;43.23;16.97;;;;;;;-0.93;85.81;98599.04;1698125;82;21260;-83
2021/01/13 20:56:05;;;;;;;47.00;15.45;;;;;;;-0.95;85.25;98584.56;1731052;77;21531;-80
2021/01/13 20:58:40;;;;;;;49.03;15.58;;;;;;;-0.98;84.87;98594.70;1754428;76;21245;31
2021/01/13 21:01:09;;;;;;;42.93;16.40;;;;;;;-1.03;85.30;98601.04;1753452;76;21343;-81
2021/01/13 21:06:53;;;;;;;46.28;18.12;;;;;;;-1.06;85.61;98613.73;1703203;80;22070;31
2021/01/13 21:09:22;;;;;;;46.55;17.60;;;;;;;-1.07;86.10;98603.96;1749900;81;21288;-81
2021/01/13 21:11:51;;;;;;;45.73;16.80;;;;;;;-1.05;86.00;98597.19;1732931;80;21315;31
2021/01/13 21:14:19;;;;;;;46.25;16.37;;;;;;;-1.05;85.93;98589.53;1715813;81;21272;-81
2021/01/13 21:17:08;;;;;;;54.70;18.65;;;;;;;-1.02;85.24;98588.70;1723566;81;21289;31
2021/01/13 21:19:36;;;;;;;47.53;17.48;;;;;;;-1.04;86.25;98591.66;1703032;81;21276;-82
2021/01/13 21:25:14;;;;;;;41.37;15.00;;;;;;;-0.95;85.34;98582.00;1731058;78;21126;-80
2021/01/13 21:27:42;;;;;;;37.78;15.38;;;;;;;-0.93;85.46;98589.26;1705906;81;21385;-81
2021/01/13 21:33:19;;;;;;;33.20;13.50;;;;;;;-0.86;85.58;98576.99;1705428;80;21153;-80
2021/01/13 21:35:47;;;;;;;39.20;14.75;;;;;;;-0.81;85.30;98581.32;1697679;80;21314;-81
2021/01/13 21:38:15;;;;;;;39.65;14.90;;;;;;;-0.75;85.02;98580.97;1739879;79;21282;-82
2021/01/13 21:40:44;;;;;;;38.53;14.13;;;;;;;-0.74;85.10;98579.69;1751164;78;21185;-83
2021/01/13 21:43:13;;;;;;;37.45;12.90;;;;;;;-0.75;85.18;98566.50;1765649;78;21122;-80
2021/01/13 21:45:41;;;;;;;37.03;13.65;;;;;;;-0.74;85.28;98566.92;1700235;80;21291;-81
2021/01/13 21:48:10;;;;;;;37.33;14.83;;;;;;;-0.74;85.14;98559.27;1713277;78;21531;-82
2021/01/13 21:56:50;;;;;;;98.03;22.77;;;;;;;-0.74;85.49;98558.42;1731049;78;21189;-81
2021/01/13 21:59:19;;;;;;;83.42;24.32;;;;;;;-0.76;85.32;98552.02;1742699;79;21155;-85
2021/01/13 22:01:47;;;;;;;51.20;18.77;;;;;;;-0.77;84.91;98552.02;1757264;78;22407;-78
2021/01/13 22:04:16;;;;;;;45.80;16.75;;;;;;;-0.80;85.06;98545.16;1769579;77;21101;-80
2021/01/13 22:07:06;;;;;;;46.55;18.98;;;;;;;-0.83;84.75;98545.99;1772573;77;21279;31
2021/01/13 22:12:57;;;;;;;37.17;13.33;;;;;;;-0.89;85.83;98541.25;1743809;77;21218;31
2021/01/13 22:15:24;;;;;;;39.88;13.72;;;;;;;-0.90;85.96;98538.24;1731073;81;21158;-82
2021/01/13 22:17:52;;;;;;;38.38;13.53;;;;;;;-0.89;86.02;98534.44;1729610;81;21272;-81
2021/01/13 22:20:20;;;;;;;37.20;15.38;;;;;;;-0.84;85.62;98534.48;1730333;81;21279;-81
2021/01/13 22:22:48;;;;;;;34.45;14.93;;;;;;;-0.79;85.54;98543.48;1778016;78;21552;-81
2021/01/13 22:25:16;;;;;;;36.80;13.62;;;;;;;-0.77;85.53;98528.62;1771392;79;21181;-80
2021/01/13 22:27:44;;;;;;;31.07;12.25;;;;;;;-0.73;85.56;98532.92;1789234;80;21748;-79
2021/01/13 22:30:15;;;;;;;32.08;14.07;;;;;;;-0.68;85.36;98526.14;1729138;78;21206;-79
2021/01/13 22:32:46;;;;;;;40.28;13.50;;;;;;;-0.62;85.32;98528.80;1721948;79;21297;31
2021/01/13 22:35:14;;;;;;;31.87;11.38;;;;;;;-0.61;84.95;98523.26;1767281;77;21297;-82
2021/01/13 22:37:42;;;;;;;34.15;11.50;;;;;;;-0.59;85.07;98519.45;1744632;78;21249;-82
2021/01/13 22:40:22;;;;;;;33.35;13.88;;;;;;;-0.53;84.77;98509.30;1779470;77;21228;-82
2021/01/13 22:43:00;;;;;;;34.48;12.18;;;;;;;-0.62;84.67;98501.98;1695938;79;21271;-81
2021/01/13 22:45:28;;;;;;;31.07;9.75;;;;;;;-0.54;84.60;98506.30;1707957;79;21225;-81
2021/01/13 22:47:56;;;;;;;28.65;12.80;;;;;;;-0.50;84.47;98510.16;1731276;78;21349;-81
2021/01/13 22:50:30;;;;;;;31.53;12.40;;;;;;;-0.51;84.27;98505.06;1711350;79;21241;31
2021/01/13 22:53:10;;;;;;;;;;;;;;;-0.55;84.36;98499.06;1730434;78;21341;31
2021/01/13 22:55:38;;;;;;;25.70;10.80;;;;;;;-0.47;84.04;98490.20;1708822;78;20148;-74
2021/01/13 22:58:06;;;;;;;27.65;10.70;;;;;;;-0.57;83.99;98494.79;1753430;78;21296;-82
2021/01/13 23:00:50;;;;;;;28.57;9.60;;;;;;;-0.55;84.04;98496.51;1736011;78;21571;31
2021/01/13 23:03:19;;;;;;;23.87;9.70;;;;;;;-0.63;83.74;98492.59;1745345;79;21393;-75
2021/01/13 23:05:47;;;;;;;26.73;10.93;;;;;;;-0.58;83.95;98495.62;1769952;79;21125;-80
2021/01/13 23:08:16;;;;;;;28.25;9.93;;;;;;;-0.57;83.91;98495.64;1796514;79;21266;-81
2021/01/13 23:10:44;;;;;;;19.23;7.92;;;;;;;-0.59;83.35;98493.49;1740666;79;21283;-80
2021/01/13 23:13:12;;;;;;;24.72;9.63;;;;;;;-0.65;83.12;98493.44;1763191;79;21268;-83
2021/01/13 23:15:39;;;;;;;29.75;10.15;;;;;;;-0.66;83.36;98486.20;1739401;78;21170;-81
2021/01/13 23:18:09;;;;;;;24.65;10.28;;;;;;;-0.65;83.38;98496.83;1679774;81;21320;-76
2021/01/13 23:20:38;;;;;;;22.02;9.58;;;;;;;-0.64;83.34;98496.41;1719897;78;21121;-80
2021/01/13 23:23:06;;;;;;;26.55;10.45;;;;;;;-0.70;83.54;98489.97;1785942;77;21244;-83
2021/01/13 23:25:33;;;;;;;19.73;8.88;;;;;;;-0.67;83.44;98493.41;1756938;77;21268;-79
2021/01/13 23:28:01;;;;;;;20.15;8.78;;;;;;;-0.65;83.25;98486.63;1702988;81;21138;-81
2021/01/13 23:30:35;;;;;;;27.75;9.05;;;;;;;-0.63;83.35;98487.49;1697589;83;21285;-81
2021/01/13 23:33:13;;;;;;;19.00;8.73;;;;;;;-0.63;83.27;98488.77;1711159;78;21211;31
2021/01/13 23:35:43;;;;;;;19.87;9.03;;;;;;;-0.60;82.98;98484.10;1708894;79;21480;-82
2021/01/13 23:38:12;;;;;;;23.07;10.03;;;;;;;-0.56;83.03;98478.61;1696389;82;21260;-80
2021/01/13 23:40:44;;;;;;;18.60;8.00;;;;;;;-0.54;82.91;98482.03;1725872;79;21241;-81
2021/01/13 23:43:17;;;;;;;23.02;8.68;;;;;;;-0.68;82.93;98453.39;1719698;79;21149;-79
2021/01/13 23:45:47;;;;;;;20.30;7.90;;;;;;;-0.51;82.88;98479.53;1767158;80;21154;-81
2021/01/13 23:48:15;;;;;;;24.12;9.20;;;;;;;-0.53;82.42;98469.72;1778308;79;21341;-82
2021/01/13 23:50:46;;;;;;;17.92;7.35;;;;;;;-0.56;82.32;98469.25;1750826;80;21112;-81
2021/01/13 23:53:12;;;;;;;21.70;7.90;;;;;;;-0.51;82.13;98469.31;1738762;77;21087;-83
2021/01/13 23:55:40;;;;;;;22.13;8.88;;;;;;;-0.59;82.07;98460.73;1726999;80;21259;-82
2021/01/13 23:58:08;;;;;;;17.50;6.92;;;;;;;-0.59;81.98;98461.58;1741504;79;21093;-79
